Time;durP1;ratioP1;P1;durP2;ratioP2;P2;SDS_P1;SDS_P2;PMS_P1;PMS_P2;Temp;Humidity;BMP_temperature;BMP_pressure;BME280_temperature;BME280_humidity;BME280_pressure;Samples;Min_cycle;Max_cycle;Signal;HPM_P1;HPM_P2
2023/09/21 00:00:14;;;;;;;1.45;1.00;;;24.50;54.10;;;;;;4999787;28;20514;-68
2023/09/21 00:02:50;;;;;;;2.47;1.20;;;24.50;54.10;;;;;;5002961;28;20141;-68
2023/09/21 00:05:21;;;;;;;1.73;0.90;;;24.50;54.20;;;;;;5000632;28;20111;-68
2023/09/21 00:07:47;;;;;;;1.50;1.02;;;24.50;54.10;;;;;;5004185;28;20033;-67
2023/09/21 00:10:13;;;;;;;1.45;0.95;;;24.50;54.10;;;;;;5003152;28;20678;-68
2023/09/21 00:12:40;;;;;;;1.15;0.90;;;24.50;54.10;;;;;;5016358;28;20106;-68
2023/09/21 00:15:06;;;;;;;1.45;0.93;;;24.50;54.10;;;;;;4999701;28;20030;-68
2023/09/21 00:17:37;;;;;;;1.73;0.95;;;24.50;54.10;;;;;;5001384;28;20052;-68
2023/09/21 00:20:12;;;;;;;1.48;0.90;;;24.50;54.10;;;;;;5000720;28;20015;-68
2023/09/21 00:22:38;;;;;;;1.40;0.90;;;24.50;54.10;;;;;;5002209;28;20377;-68
2023/09/21 00:25:09;;;;;;;1.45;1.00;;;24.50;54.10;;;;;;5002636;28;20030;-68
2023/09/21 00:27:36;;;;;;;1.50;1.10;;;24.50;54.10;;;;;;5001959;28;20033;-68
2023/09/21 00:30:04;;;;;;;1.25;0.90;;;24.50;54.10;;;;;;4999907;28;20034;-68
2023/09/21 00:32:30;;;;;;;1.57;1.00;;;24.50;54.10;;;;;;5002027;28;20165;-68
2023/09/21 00:34:55;;;;;;;1.38;1.00;;;24.50;54.10;;;;;;5001647;28;20112;-68
2023/09/21 00:37:22;;;;;;;1.52;0.90;;;24.50;54.10;;;;;;5001481;28;20027;-68
2023/09/21 00:39:48;;;;;;;1.70;1.10;;;24.50;54.10;;;;;;5003412;28;20485;-66
2023/09/21 00:42:13;;;;;;;1.15;0.90;;;24.50;54.10;;;;;;5001032;28;20104;-66
2023/09/21 00:44:40;;;;;;;1.25;1.00;;;24.50;54.10;;;;;;5000337;28;20033;-66
2023/09/21 00:47:06;;;;;;;1.40;0.95;;;24.50;54.00;;;;;;5001610;28;20026;-66
2023/09/21 00:49:32;;;;;;;1.13;0.90;;;24.50;54.00;;;;;;4999714;28;20032;-66
2023/09/21 00:51:58;;;;;;;1.92;0.85;;;24.50;54.10;;;;;;5002009;28;20034;-65
2023/09/21 00:54:25;;;;;;;1.27;0.90;;;24.50;54.10;;;;;;5001023;28;20030;-65
2023/09/21 00:56:54;;;;;;;1.15;0.80;;;24.50;54.10;;;;;;5001261;28;20119;-65
2023/09/21 00:59:21;;;;;;;1.42;1.00;;;24.50;54.00;;;;;;4997313;28;20076;-65
2023/09/21 01:01:48;;;;;;;1.63;0.93;;;24.50;54.00;;;;;;5001222;28;20515;-66
2023/09/21 01:04:14;;;;;;;1.48;0.95;;;24.50;54.10;;;;;;5000958;28;20045;-66
2023/09/21 01:06:43;;;;;;;1.83;1.00;;;24.50;54.00;;;;;;5016720;28;20034;-66
2023/09/21 01:09:09;;;;;;;1.40;1.00;;;24.50;54.00;;;;;;5001571;28;20073;-66
2023/09/21 01:11:39;;;;;;;1.58;1.02;;;24.50;54.00;;;;;;4999830;28;20426;-66
2023/09/21 01:14:05;;;;;;;1.55;1.00;;;24.50;54.00;;;;;;4999253;28;20158;-66
2023/09/21 01:16:31;;;;;;;1.63;1.02;;;24.50;54.00;;;;;;4999564;28;20065;-66
2023/09/21 01:18:57;;;;;;;1.58;0.90;;;24.50;54.00;;;;;;5000566;28;20054;-66
2023/09/21 01:21:34;;;;;;;1.13;0.90;;;24.50;54.00;;;;;;5003131;28;20498;-66
2023/09/21 01:24:00;;;;;;;1.85;1.20;;;24.50;54.00;;;;;;4999408;28;20026;-66
2023/09/21 01:26:26;;;;;;;1.45;0.93;;;24.40;53.90;;;;;;5017041;28;20034;-66
2023/09/21 01:28:54;;;;;;;1.52;0.93;;;24.50;54.00;;;;;;5000426;28;20363;-66
2023/09/21 01:31:20;;;;;;;2.15;1.02;;;24.40;54.50;;;;;;5000087;28;20045;-66
2023/09/21 01:33:46;;;;;;;1.00;0.80;;;24.40;54.00;;;;;;5002214;28;20031;-66
2023/09/21 01:36:16;;;;;;;1.13;0.90;;;24.40;54.00;;;;;;4998278;28;20027;-66
2023/09/21 01:38:46;;;;;;;1.33;0.90;;;24.40;54.00;;;;;;4998725;28;20498;-66
2023/09/21 01:41:13;;;;;;;1.27;0.85;;;24.40;53.90;;;;;;4999755;28;20028;-66
2023/09/21 01:43:39;;;;;;;0.90;0.80;;;24.50;54.00;;;;;;5002804;28;20470;-66
2023/09/21 01:46:05;;;;;;;1.30;0.90;;;24.50;54.00;;;;;;4998153;28;20038;-66
2023/09/21 01:48:32;;;;;;;1.20;0.90;;;24.40;53.90;;;;;;4999263;28;20229;-66
2023/09/21 01:50:58;;;;;;;1.13;0.90;;;24.40;53.90;;;;;;4999370;28;20021;-66
2023/09/21 01:53:24;;;;;;;0.98;0.82;;;24.40;53.90;;;;;;4997701;28;20093;-66
2023/09/21 01:55:50;;;;;;;1.30;0.90;;;24.40;53.90;;;;;;5000913;28;20498;-66
2023/09/21 01:58:18;;;;;;;1.13;0.90;;;24.40;53.90;;;;;;4999623;28;20041;-66
2023/09/21 02:00:49;;;;;;;1.30;1.00;;;24.40;53.90;;;;;;4999868;28;20383;-62
2023/09/21 02:03:17;;;;;;;1.38;0.85;;;24.40;53.90;;;;;;4999073;28;20057;-64
2023/09/21 02:05:43;;;;;;;1.52;1.00;;;24.40;53.90;;;;;;4999422;28;20365;-62
2023/09/21 02:08:11;;;;;;;1.23;1.00;;;24.40;53.90;;;;;;5000923;28;20042;-63
2023/09/21 02:10:38;;;;;;;1.10;0.90;;;24.40;53.90;;;;;;5001531;28;20034;-62
2023/09/21 02:13:08;;;;;;;1.50;0.98;;;24.40;53.90;;;;;;4999708;28;20018;-62
2023/09/21 02:15:34;;;;;;;;;;;24.40;53.90;;;;;;5000168;28;20481;-63
2023/09/21 02:18:02;;;;;;;0.98;0.80;;;24.40;53.90;;;;;;4997409;28;20432;-62
2023/09/21 02:20:29;;;;;;;1.17;0.90;;;24.40;53.90;;;;;;4999267;28;20029;-63
2023/09/21 02:23:00;;;;;;;1.20;0.90;;;24.40;53.90;;;;;;4999907;28;20381;-62
2023/09/21 02:25:30;;;;;;;1.05;0.80;;;24.40;53.90;;;;;;4997919;28;20065;-62
2023/09/21 02:27:56;;;;;;;1.02;0.82;;;24.40;54.00;;;;;;4999500;28;20030;-63
2023/09/21 02:30:22;;;;;;;1.40;0.90;;;24.30;53.80;;;;;;4997645;28;20036;-62
2023/09/21 02:32:49;;;;;;;0.85;0.70;;;24.30;53.90;;;;;;4997858;28;20454;-62
2023/09/21 02:35:19;;;;;;;0.73;0.73;;;24.30;53.90;;;;;;4998502;28;20041;-63
2023/09/21 02:37:45;;;;;;;;;;;24.30;53.90;;;;;;5001274;28;20449;-64
2023/09/21 02:40:14;;;;;;;0.90;0.80;;;24.30;53.90;;;;;;4998637;28;20308;-63
2023/09/21 02:42:48;;;;;;;1.10;0.73;;;24.30;53.90;;;;;;4997405;28;20030;-63
2023/09/21 02:45:15;;;;;;;1.08;0.90;;;24.30;53.90;;;;;;4998874;28;20031;-62
2023/09/21 02:47:45;;;;;;;1.33;0.90;;;24.30;53.90;;;;;;4997619;28;20030;-62
2023/09/21 02:50:15;;;;;;;1.60;0.98;;;24.30;53.90;;;;;;4998665;28;20037;-67
2023/09/21 02:53:08;;;;;;;1.52;0.90;;;24.30;53.90;;;;;;4998018;28;20030;-68
2023/09/21 02:55:35;;;;;;;0.85;0.75;;;24.30;53.90;;;;;;5000894;28;20491;-68
2023/09/21 02:58:05;;;;;;;0.90;0.80;;;24.30;53.90;;;;;;4997348;28;20034;-68
2023/09/21 03:00:35;;;;;;;1.08;0.80;;;24.30;53.90;;;;;;4998782;28;20032;-66
2023/09/21 03:03:06;;;;;;;1.38;0.80;;;24.30;53.90;;;;;;5013577;28;20022;-66
2023/09/21 03:05:33;;;;;;;1.50;0.80;;;24.30;53.90;;;;;;4997761;28;20033;-66
2023/09/21 03:08:07;;;;;;;1.20;0.90;;;24.30;53.90;;;;;;4997000;28;20414;-66
2023/09/21 03:10:33;;;;;;;0.90;0.80;;;24.30;53.90;;;;;;4998821;28;20092;-62
2023/09/21 03:12:59;;;;;;;1.10;0.90;;;24.30;53.80;;;;;;4998221;28;20033;-62
2023/09/21 03:15:24;;;;;;;1.15;0.88;;;24.30;53.80;;;;;;4997786;28;20025;-61
2023/09/21 03:17:53;;;;;;;1.35;0.95;;;24.30;53.80;;;;;;4999099;28;20033;-62
2023/09/21 03:20:34;;;;;;;1.25;0.90;;;24.30;53.90;;;;;;4999360;28;20490;-62
2023/09/21 03:23:05;;;;;;;1.10;0.80;;;24.30;53.90;;;;;;4998669;28;20026;-63
2023/09/21 03:25:32;;;;;;;1.00;0.85;;;24.30;53.80;;;;;;4999164;28;20434;-63
2023/09/21 03:28:00;;;;;;;0.80;0.80;;;24.30;53.90;;;;;;4999802;28;20482;-61
2023/09/21 03:30:27;;;;;;;1.10;0.80;;;24.30;53.90;;;;;;4997570;28;20101;-63
2023/09/21 03:32:53;;;;;;;1.42;0.90;;;24.30;53.90;;;;;;4998690;28;20500;-63
2023/09/21 03:35:20;;;;;;;0.95;0.85;;;24.30;53.90;;;;;;4999213;28;20080;-62
2023/09/21 03:37:50;;;;;;;0.70;0.70;;;24.30;53.90;;;;;;4999305;28;20034;-62
2023/09/21 03:40:17;;;;;;;0.98;0.88;;;24.30;53.90;;;;;;4999522;28;20022;-62
2023/09/21 03:42:43;;;;;;;0.85;0.70;;;24.30;53.80;;;;;;4998270;28;20053;-61
2023/09/21 03:45:11;;;;;;;0.77;0.77;;;24.20;53.80;;;;;;4998789;28;20026;-62
2023/09/21 03:47:37;;;;;;;1.13;0.80;;;24.20;53.80;;;;;;4999106;28;20041;-62
2023/09/21 03:50:05;;;;;;;1.48;0.90;;;24.20;53.80;;;;;;5000019;28;20382;-63
2023/09/21 03:52:31;;;;;;;0.85;0.80;;;24.20;53.80;;;;;;4997686;28;20049;-61
2023/09/21 03:54:57;;;;;;;1.17;0.80;;;24.20;54.30;;;;;;4999031;28;20482;-62
2023/09/21 03:57:22;;;;;;;1.05;0.75;;;24.20;53.80;;;;;;4998793;28;20033;-63
2023/09/21 03:59:48;;;;;;;0.80;0.70;;;24.20;53.70;;;;;;4998799;28;20022;-62
2023/09/21 04:02:14;;;;;;;1.13;0.70;;;24.20;53.80;;;;;;4996479;28;20026;-62
2023/09/21 04:04:40;;;;;;;1.08;0.80;;;24.30;53.80;;;;;;4998144;28;20089;-62
2023/09/21 04:07:07;;;;;;;1.02;0.80;;;24.20;53.80;;;;;;4998233;28;20031;-61
2023/09/21 04:09:34;;;;;;;0.98;0.80;;;24.20;53.70;;;;;;4999354;28;20533;-63
2023/09/21 04:12:00;;;;;;;0.90;0.73;;;24.20;53.70;;;;;;4998984;28;20103;-65
2023/09/21 04:14:27;;;;;;;1.15;0.82;;;24.20;53.70;;;;;;4997433;28;20029;-66
2023/09/21 04:16:52;;;;;;;1.17;0.80;;;24.20;53.70;;;;;;4997170;28;20454;-66
2023/09/21 04:19:18;;;;;;;0.93;0.80;;;24.20;53.70;;;;;;4999531;28;20066;-65
2023/09/21 04:21:46;;;;;;;1.00;0.70;;;24.20;53.70;;;;;;5002187;28;20048;-63
2023/09/21 04:24:13;;;;;;;0.82;0.70;;;24.20;53.70;;;;;;5002993;28;20024;-61
2023/09/21 04:26:39;;;;;;;0.95;0.70;;;24.20;53.70;;;;;;4999764;28;20065;-63
2023/09/21 04:29:07;;;;;;;0.73;0.65;;;24.20;53.60;;;;;;5002507;28;20034;-61
2023/09/21 04:31:32;;;;;;;1.08;0.90;;;24.20;53.70;;;;;;5000204;28;20030;-62
2023/09/21 04:33:58;;;;;;;2.10;0.90;;;24.20;53.60;;;;;;5001747;28;20034;-62
2023/09/21 04:36:24;;;;;;;1.08;0.80;;;24.20;53.60;;;;;;4999938;28;20089;-63
2023/09/21 04:38:51;;;;;;;1.27;0.73;;;24.20;53.70;;;;;;5002628;28;20033;-62
2023/09/21 04:41:17;;;;;;;0.95;0.85;;;24.10;53.60;;;;;;5001771;28;20121;-62
2023/09/21 04:43:43;;;;;;;1.10;0.80;;;24.20;53.70;;;;;;5002587;28;20117;-62
2023/09/21 04:46:10;;;;;;;1.38;0.90;;;24.20;53.60;;;;;;5000396;28;20370;-62
2023/09/21 04:48:36;;;;;;;0.82;0.80;;;24.20;53.60;;;;;;5001630;28;20035;-61
2023/09/21 04:51:03;;;;;;;1.52;0.80;;;24.20;53.60;;;;;;4999722;28;20045;-62
2023/09/21 04:53:29;;;;;;;1.15;0.90;;;24.20;53.60;;;;;;5001853;28;20133;-61
2023/09/21 04:55:55;;;;;;;1.08;0.80;;;24.10;53.60;;;;;;5001628;28;20376;-63
2023/09/21 04:58:23;;;;;;;0.70;0.70;;;24.10;53.60;;;;;;5001041;28;20489;-64
2023/09/21 05:00:49;;;;;;;2.22;0.90;;;24.10;53.60;;;;;;5000458;28;20501;-63
2023/09/21 05:03:15;;;;;;;1.45;0.90;;;24.10;53.60;;;;;;5001212;28;20046;-61
2023/09/21 05:05:41;;;;;;;1.08;0.77;;;24.10;53.60;;;;;;5001435;28;20074;-63
2023/09/21 05:08:09;;;;;;;0.93;0.70;;;24.10;53.60;;;;;;5000996;28;20532;-62
2023/09/21 05:10:34;;;;;;;1.10;0.80;;;24.10;53.60;;;;;;5001978;28;20033;-62
2023/09/21 05:13:00;;;;;;;0.70;0.70;;;24.10;53.60;;;;;;5000214;28;20025;-61
2023/09/21 05:15:26;;;;;;;1.33;0.90;;;24.10;53.50;;;;;;5000198;28;20471;-63
2023/09/21 05:17:51;;;;;;;1.63;0.80;;;24.10;53.50;;;;;;4999585;28;20101;-62
2023/09/21 05:20:17;;;;;;;1.08;0.70;;;24.10;53.50;;;;;;5001502;28;20092;-66
2023/09/21 05:22:43;;;;;;;1.00;0.90;;;24.10;53.50;;;;;;5000256;28;20030;-64
2023/09/21 05:25:09;;;;;;;1.48;0.90;;;24.10;53.60;;;;;;5003264;28;20030;-65
2023/09/21 05:27:39;;;;;;;1.42;0.90;;;24.10;53.50;;;;;;5001926;28;20022;-65
2023/09/21 05:30:05;;;;;;;1.00;0.73;;;24.10;53.60;;;;;;5001772;28;20030;-65
2023/09/21 05:32:32;;;;;;;0.98;0.80;;;24.10;53.50;;;;;;4999141;28;20037;-64
2023/09/21 05:34:59;;;;;;;1.58;0.80;;;24.10;53.80;;;;;;4998511;28;20030;-65
2023/09/21 05:37:24;;;;;;;0.63;0.63;;;24.10;53.60;;;;;;5001024;28;20386;-65
2023/09/21 05:39:51;;;;;;;0.73;0.68;;;24.10;53.60;;;;;;5001252;28;20033;-65
2023/09/21 05:42:17;;;;;;;1.10;0.80;;;24.10;53.60;;;;;;5000269;28;20462;-65
2023/09/21 05:44:43;;;;;;;0.95;0.80;;;24.10;53.50;;;;;;5000733;28;20112;-64
2023/09/21 05:47:10;;;;;;;1.33;0.98;;;24.10;53.60;;;;;;4997270;28;20197;-65
2023/09/21 05:49:39;;;;;;;1.30;0.90;;;24.10;53.50;;;;;;5002534;28;20037;-65
2023/09/21 05:52:11;;;;;;;;;;;24.10;53.50;;;;;;5000456;28;20030;-64
2023/09/21 05:54:37;;;;;;;1.25;0.80;;;24.10;53.50;;;;;;5000270;28;19995;-64
2023/09/21 05:57:03;;;;;;;0.85;0.70;;;24.10;53.50;;;;;;5001122;28;20109;-64
2023/09/21 05:59:31;;;;;;;1.02;0.77;;;24.10;53.50;;;;;;4999308;28;20077;-65
2023/09/21 06:01:57;;;;;;;1.10;0.70;;;24.10;53.50;;;;;;4998140;28;20024;-65
2023/09/21 06:04:24;;;;;;;1.20;0.80;;;24.10;53.50;;;;;;5000193;28;20037;-65
2023/09/21 06:06:51;;;;;;;1.38;0.80;;;24.10;53.50;;;;;;5007323;28;20042;-64
2023/09/21 06:09:22;;;;;;;1.38;0.90;;;24.10;53.50;;;;;;4999580;28;20028;-65
2023/09/21 06:11:48;;;;;;;1.25;0.80;;;24.10;53.50;;;;;;5001741;28;20022;-65
2023/09/21 06:14:15;;;;;;;0.98;0.80;;;24.10;53.50;;;;;;4999850;28;20037;-65
2023/09/21 06:16:43;;;;;;;0.80;0.70;;;24.10;53.50;;;;;;4997894;28;20030;-65
2023/09/21 06:19:12;;;;;;;1.27;0.90;;;24.10;53.50;;;;;;4998884;28;20037;-65
2023/09/21 06:21:41;;;;;;;1.20;0.90;;;24.10;53.50;;;;;;4998995;28;20049;-64
2023/09/21 06:24:08;;;;;;;1.23;0.73;;;24.10;53.50;;;;;;4999187;28;20496;-65
2023/09/21 06:26:35;;;;;;;0.90;0.70;;;24.10;53.50;;;;;;4998424;28;20053;-65
2023/09/21 06:29:01;;;;;;;1.25;0.90;;;24.10;53.50;;;;;;5001244;28;20168;-65
2023/09/21 06:31:27;;;;;;;1.05;0.88;;;24.10;53.50;;;;;;4998802;28;20056;-65
2023/09/21 06:33:58;;;;;;;0.93;0.80;;;24.10;53.50;;;;;;5000982;28;20033;-65
2023/09/21 06:36:28;;;;;;;1.13;0.80;;;24.00;53.40;;;;;;4999010;28;20667;-65
2023/09/21 06:38:54;;;;;;;1.27;0.85;;;24.10;54.00;;;;;;4999020;28;20468;-65
2023/09/21 06:41:21;;;;;;;1.10;0.80;;;24.10;53.50;;;;;;4999935;28;20124;-67
2023/09/21 06:43:47;;;;;;;1.35;0.90;;;24.10;53.50;;;;;;4999002;28;20030;-67
2023/09/21 06:46:13;;;;;;;1.30;0.80;;;24.00;53.40;;;;;;4997811;28;20026;-67
2023/09/21 06:48:41;;;;;;;1.30;0.95;;;24.10;53.50;;;;;;4998044;28;20018;-67
2023/09/21 06:51:10;;;;;;;1.33;0.88;;;24.10;53.50;;;;;;5015048;28;20038;-67
2023/09/21 06:53:36;;;;;;;1.38;0.82;;;24.10;53.50;;;;;;4998749;28;20038;-67
2023/09/21 06:56:03;;;;;;;1.25;0.90;;;24.10;53.50;;;;;;4998340;28;20421;-67
2023/09/21 06:58:30;;;;;;;1.02;0.70;;;24.10;53.50;;;;;;4999400;28;20113;-67
2023/09/21 07:00:58;;;;;;;1.00;0.80;;;24.00;53.40;;;;;;5001927;28;20458;-64
2023/09/21 07:03:24;;;;;;;0.82;0.75;;;24.00;53.50;;;;;;4997452;28;20029;-61
2023/09/21 07:05:50;;;;;;;1.10;0.80;;;24.10;53.50;;;;;;4997601;28;20131;-64
2023/09/21 07:08:16;;;;;;;1.35;0.90;;;24.00;53.50;;;;;;4997514;28;20117;-63
2023/09/21 07:10:43;;;;;;;1.25;0.75;;;24.00;53.50;;;;;;4998315;28;20029;-63
2023/09/21 07:13:09;;;;;;;1.08;0.80;;;24.00;53.40;;;;;;5000847;28;20030;-62
2023/09/21 07:15:37;;;;;;;1.10;0.80;;;24.00;53.50;;;;;;4999535;28;20041;-64
2023/09/21 07:18:05;;;;;;;0.80;0.70;;;24.00;53.40;;;;;;4996956;28;20124;-63
2023/09/21 07:20:31;;;;;;;0.80;0.70;;;24.00;53.50;;;;;;4999308;28;20501;-61
2023/09/21 07:22:57;;;;;;;1.77;0.80;;;24.00;53.50;;;;;;4999608;28;20026;-61
2023/09/21 07:25:23;;;;;;;1.00;0.80;;;24.00;53.50;;;;;;4998622;28;20038;-61
2023/09/21 07:27:54;;;;;;;0.82;0.70;;;24.00;53.50;;;;;;4997864;28;20033;-61
2023/09/21 07:30:25;;;;;;;1.00;0.70;;;24.00;53.50;;;;;;4999069;28;20062;-62
2023/09/21 07:32:51;;;;;;;0.88;0.80;;;24.00;53.50;;;;;;4999776;28;20389;-63
2023/09/21 07:35:19;;;;;;;0.70;0.65;;;24.00;53.50;;;;;;4996087;28;20573;-62
2023/09/21 07:37:46;;;;;;;1.17;0.80;;;24.00;53.50;;;;;;4999625;28;20018;-62
2023/09/21 07:40:14;;;;;;;1.30;0.80;;;24.00;53.50;;;;;;4997902;28;20543;-65
2023/09/21 07:42:43;;;;;;;0.57;0.57;;;24.00;53.50;;;;;;4997751;28;20450;-65
2023/09/21 07:45:09;;;;;;;1.27;0.80;;;24.00;53.50;;;;;;4997288;28;20461;-65
2023/09/21 07:47:37;;;;;;;0.68;0.65;;;23.90;53.40;;;;;;4996527;28;20038;-65
2023/09/21 07:50:03;;;;;;;1.80;0.80;;;23.90;53.50;;;;;;4998535;28;20114;-63
2023/09/21 07:52:30;;;;;;;1.10;0.70;;;24.00;53.50;;;;;;4999576;28;20045;-63
2023/09/21 07:54:56;;;;;;;1.08;0.80;;;24.00;53.50;;;;;;4999897;28;20030;-63
2023/09/21 07:57:22;;;;;;;1.13;0.77;;;23.90;53.50;;;;;;5002319;28;20029;-62
2023/09/21 07:59:48;;;;;;;1.08;0.80;;;24.00;53.50;;;;;;5000637;28;20042;-61
2023/09/21 08:02:14;;;;;;;0.95;0.68;;;24.00;53.60;;;;;;5000389;28;20021;-61
2023/09/21 08:04:40;;;;;;;0.93;0.80;;;23.90;53.50;;;;;;5002314;28;20034;-62
2023/09/21 08:07:06;;;;;;;0.98;0.70;;;23.90;53.50;;;;;;5000230;28;20421;-63
2023/09/21 08:09:32;;;;;;;0.95;0.70;;;23.90;53.50;;;;;;5002333;28;20034;-61
2023/09/21 08:11:58;;;;;;;1.15;0.90;;;23.90;53.50;;;;;;5003701;28;20382;-67
2023/09/21 08:14:25;;;;;;;1.63;1.00;;;23.90;53.60;;;;;;5003888;28;20486;-68
2023/09/21 08:16:53;;;;;;;1.15;0.70;;;23.90;53.60;;;;;;5003340;28;20030;-67
2023/09/21 08:19:19;;;;;;;1.33;0.90;;;23.90;53.60;;;;;;5002595;28;20073;-67
2023/09/21 08:21:45;;;;;;;1.23;0.80;;;23.90;53.60;;;;;;5002618;28;20038;-67
2023/09/21 08:24:10;;;;;;;0.80;0.70;;;23.90;54.10;;;;;;5002133;28;20113;-67
2023/09/21 08:26:37;;;;;;;1.00;0.82;;;23.90;53.60;;;;;;5002101;28;20032;-67
2023/09/21 08:29:04;;;;;;;0.95;0.80;;;23.90;53.60;;;;;;5002977;28;20069;-67
2023/09/21 08:31:30;;;;;;;1.17;0.80;;;23.90;53.60;;;;;;5002167;28;20113;-67
2023/09/21 08:33:57;;;;;;;1.48;0.77;;;23.90;53.60;;;;;;5000346;28;20130;-67
2023/09/21 08:36:23;;;;;;;0.77;0.77;;;23.90;53.60;;;;;;5001663;28;20038;-67
2023/09/21 08:38:49;;;;;;;1.00;0.90;;;23.90;54.20;;;;;;4998036;28;20382;-67
2023/09/21 08:41:16;;;;;;;1.13;0.80;;;23.90;53.70;;;;;;5002049;28;20508;-67
2023/09/21 08:43:43;;;;;;;0.95;0.77;;;23.90;53.70;;;;;;5000283;28;20497;-67
2023/09/21 08:46:11;;;;;;;0.93;0.80;;;23.90;53.70;;;;;;5000431;28;20126;-67
2023/09/21 08:48:39;;;;;;;1.23;0.90;;;23.90;53.70;;;;;;4998957;28;20061;-67
2023/09/21 08:51:09;;;;;;;1.13;0.88;;;23.90;53.70;;;;;;5001989;28;20104;-67
2023/09/21 08:53:36;;;;;;;1.33;0.90;;;23.90;53.70;;;;;;5001298;28;20029;-67
2023/09/21 08:56:03;;;;;;;0.95;0.77;;;23.90;53.70;;;;;;4999477;28;20033;-67
2023/09/21 08:58:37;;;;;;;0.93;0.80;;;23.90;53.80;;;;;;5001701;28;20359;-67
2023/09/21 09:01:03;;;;;;;1.15;0.80;;;23.80;53.70;;;;;;5000614;28;20027;-65
2023/09/21 09:03:30;;;;;;;1.42;0.90;;;23.90;53.80;;;;;;5001593;28;20034;-65
2023/09/21 09:05:58;;;;;;;1.08;0.82;;;23.90;53.80;;;;;;4999501;28;20383;-65
2023/09/21 09:08:25;;;;;;;1.02;0.82;;;23.90;53.80;;;;;;5002232;28;20084;-65
2023/09/21 09:10:53;;;;;;;1.42;0.80;;;23.90;53.80;;;;;;5000363;28;20052;-65
2023/09/21 09:13:19;;;;;;;1.08;0.80;;;23.80;54.10;;;;;;5002145;28;20097;-66
2023/09/21 09:15:45;;;;;;;0.95;0.80;;;23.90;53.80;;;;;;5002126;28;20068;-66
2023/09/21 09:18:13;;;;;;;1.17;0.80;;;23.90;53.80;;;;;;5002198;28;20029;-65
2023/09/21 09:20:44;;;;;;;0.77;0.70;;;23.90;53.80;;;;;;5002903;28;20500;-61
2023/09/21 09:23:12;;;;;;;1.17;0.80;;;23.90;53.80;;;;;;5000806;28;20034;-61
2023/09/21 09:25:39;;;;;;;0.83;0.80;;;23.90;53.90;;;;;;5001500;28;20521;-61
2023/09/21 09:28:08;;;;;;;1.83;0.80;;;23.90;53.90;;;;;;5000119;28;20101;-61
2023/09/21 09:30:35;;;;;;;0.80;0.80;;;23.90;53.90;;;;;;5000503;28;20045;-62
2023/09/21 09:33:03;;;;;;;1.08;0.88;;;23.90;53.90;;;;;;4998554;28;20073;-62
2023/09/21 09:35:30;;;;;;;1.08;0.80;;;23.80;53.80;;;;;;5001433;28;20053;-61
2023/09/21 09:37:57;;;;;;;1.23;0.90;;;23.80;53.90;;;;;;5001282;28;20026;-64
2023/09/21 09:40:26;;;;;;;1.23;0.75;;;23.90;53.90;;;;;;5001900;28;20036;-62
2023/09/21 09:42:52;;;;;;;0.80;0.70;;;23.80;53.90;;;;;;5000855;28;20025;-62
2023/09/21 09:45:20;;;;;;;0.82;0.80;;;23.80;53.90;;;;;;4998902;28;20089;-63
2023/09/21 09:47:51;;;;;;;1.00;0.88;;;23.80;53.90;;;;;;5008001;28;20124;-62
2023/09/21 09:50:24;;;;;;;1.00;0.90;;;23.80;53.90;;;;;;4999623;28;20101;-63
2023/09/21 09:52:52;;;;;;;1.10;0.90;;;23.90;53.90;;;;;;5000528;28;20027;-62
2023/09/21 09:55:22;;;;;;;1.08;0.80;;;23.80;53.90;;;;;;5000183;28;20018;-61
2023/09/21 09:57:53;;;;;;;1.30;0.80;;;23.80;53.90;;;;;;4997984;28;20597;-61
2023/09/21 10:00:21;;;;;;;1.33;0.63;;;23.80;53.90;;;;;;4999031;28;20037;-65
2023/09/21 10:02:47;;;;;;;0.82;0.70;;;23.80;53.90;;;;;;4999891;28;20073;-66
2023/09/21 10:05:14;;;;;;;0.77;0.77;;;23.80;54.00;;;;;;4997674;28;20118;-66
2023/09/21 10:07:40;;;;;;;3.03;0.80;;;23.80;53.90;;;;;;4999866;28;20038;-66
2023/09/21 10:10:13;;;;;;;0.70;0.70;;;23.90;54.00;;;;;;5000581;28;20553;-67
2023/09/21 10:12:39;;;;;;;0.95;0.80;;;23.80;54.00;;;;;;5000108;28;20600;-67
2023/09/21 10:15:06;;;;;;;0.70;0.60;;;23.80;54.00;;;;;;4999907;28;20121;-67
2023/09/21 10:17:36;;;;;;;1.15;0.90;;;23.80;54.00;;;;;;4999743;28;20109;-67
2023/09/21 10:20:14;;;;;;;1.20;1.00;;;23.80;54.00;;;;;;4999156;28;20038;-67
2023/09/21 10:22:43;;;;;;;1.40;1.00;;;23.80;54.30;;;;;;5001246;28;20038;-67
2023/09/21 10:25:10;;;;;;;0.77;0.68;;;23.80;54.00;;;;;;4998066;28;20038;-67
2023/09/21 10:27:39;;;;;;;0.98;0.88;;;23.80;54.00;;;;;;4999884;28;20434;-67
2023/09/21 10:30:09;;;;;;;1.02;0.80;;;23.90;54.10;;;;;;5000559;28;20029;-62
2023/09/21 10:32:49;;;;;;;0.90;0.73;;;23.90;54.10;;;;;;4999889;28;20029;-62
2023/09/21 10:35:49;;;;;;;1.27;0.80;;;23.80;54.00;;;;;;4998632;28;20033;-62
2023/09/21 10:38:16;;;;;;;1.02;0.75;;;23.90;54.10;;;;;;4997023;28;20033;-62
2023/09/21 10:40:43;;;;;;;0.95;0.80;;;23.90;54.10;;;;;;5000660;28;20394;-63
2023/09/21 10:43:36;;;;;;;1.20;0.98;;;23.90;54.60;;;;;;4999815;28;20439;-62
2023/09/21 10:46:03;;;;;;;1.20;0.77;;;23.80;54.10;;;;;;4997667;28;20027;-62
2023/09/21 10:48:30;;;;;;;1.00;0.90;;;23.90;54.10;;;;;;4999232;28;20405;-63
2023/09/21 10:50:57;;;;;;;1.17;0.90;;;23.80;54.10;;;;;;4997657;28;20100;-63
2023/09/21 10:53:23;;;;;;;0.98;0.75;;;23.90;54.10;;;;;;5000555;28;20111;-63
2023/09/21 10:55:49;;;;;;;1.08;0.80;;;23.80;54.10;;;;;;5000866;28;20427;-62
2023/09/21 10:58:21;;;;;;;1.05;0.88;;;23.90;54.10;;;;;;5000026;28;20057;-62
2023/09/21 11:00:47;;;;;;;1.00;0.73;;;23.90;54.10;;;;;;4996759;28;20184;-62
2023/09/21 11:03:13;;;;;;;1.02;0.90;;;23.90;54.10;;;;;;5000769;28;20041;-61
2023/09/21 11:05:39;;;;;;;0.80;0.77;;;23.90;54.10;;;;;;4997153;28;20030;-61
2023/09/21 11:08:06;;;;;;;1.15;0.80;;;23.90;54.10;;;;;;4998489;28;20134;-61
2023/09/21 11:10:33;;;;;;;1.00;0.80;;;23.90;54.10;;;;;;4998794;28;20049;-67
2023/09/21 11:12:58;;;;;;;0.77;0.77;;;23.90;54.10;;;;;;4997937;28;20617;-67
2023/09/21 11:15:25;;;;;;;1.13;0.80;;;23.90;54.10;;;;;;4997688;28;20058;-67
2023/09/21 11:17:51;;;;;;;1.20;0.80;;;23.80;54.10;;;;;;4998867;28;20113;-65
2023/09/21 11:20:19;;;;;;;0.80;0.80;;;23.90;54.10;;;;;;4997254;28;20551;-65
2023/09/21 11:22:47;;;;;;;0.95;0.80;;;23.90;54.10;;;;;;4999102;28;20026;-65
2023/09/21 11:25:18;;;;;;;0.85;0.80;;;23.90;54.10;;;;;;4996892;28;20034;-65
2023/09/21 11:27:45;;;;;;;0.73;0.70;;;23.90;54.10;;;;;;4999792;28;20042;-65
2023/09/21 11:30:13;;;;;;;0.85;0.70;;;23.90;54.10;;;;;;4995331;28;20354;-65
2023/09/21 11:32:50;;;;;;;0.82;0.82;;;23.80;54.10;;;;;;4997981;28;20462;-67
2023/09/21 11:35:17;;;;;;;1.55;0.80;;;23.90;54.10;;;;;;4998597;28;20100;-67
2023/09/21 11:37:43;;;;;;;0.98;0.80;;;23.90;54.10;;;;;;4996516;28;20019;-67
2023/09/21 11:40:13;;;;;;;0.82;0.73;;;23.90;54.10;;;;;;4999235;28;20022;-66
2023/09/21 11:42:46;;;;;;;0.93;0.80;;;23.90;54.10;;;;;;4998530;28;20442;-66
2023/09/21 11:45:21;;;;;;;1.00;0.80;;;23.90;54.10;;;;;;4996993;28;20049;-66
2023/09/21 11:47:47;;;;;;;0.80;0.70;;;23.90;54.10;;;;;;4997774;28;20636;-66
2023/09/21 11:50:19;;;;;;;0.82;0.70;;;23.90;54.10;;;;;;4996494;28;20045;-67
2023/09/21 11:52:44;;;;;;;0.80;0.80;;;23.90;54.10;;;;;;4998770;28;20478;-66
2023/09/21 11:55:11;;;;;;;0.82;0.77;;;23.90;54.10;;;;;;4998071;28;20120;-66
2023/09/21 11:57:37;;;;;;;0.98;0.80;;;23.90;54.10;;;;;;4998232;28;20502;-66
2023/09/21 12:00:14;;;;;;;0.77;0.70;;;23.90;54.10;;;;;;4997873;28;20023;-66
2023/09/21 12:02:40;;;;;;;0.75;0.75;;;23.90;54.10;;;;;;4998071;28;20014;-66
2023/09/21 12:05:10;;;;;;;1.13;0.90;;;23.90;54.10;;;;;;4998268;28;20502;-66
2023/09/21 12:07:36;;;;;;;1.10;0.82;;;23.90;54.10;;;;;;4998960;28;20036;-66
2023/09/21 12:10:02;;;;;;;0.77;0.70;;;23.90;54.10;;;;;;4996907;28;20101;-66
2023/09/21 12:12:29;;;;;;;1.25;0.90;;;23.90;54.10;;;;;;4999584;28;20052;-66
2023/09/21 12:14:54;;;;;;;1.08;0.90;;;23.90;54.10;;;;;;4998588;28;20026;-66
2023/09/21 12:17:20;;;;;;;1.00;0.90;;;24.00;54.20;;;;;;4996903;28;20395;-66
2023/09/21 12:19:46;;;;;;;1.00;0.80;;;24.00;54.20;;;;;;4997115;28;20030;-65
2023/09/21 12:22:12;;;;;;;0.80;0.80;;;24.00;54.20;;;;;;5001303;28;20426;-66
2023/09/21 12:24:37;;;;;;;1.42;0.90;;;24.00;54.20;;;;;;4999459;28;20030;-67
2023/09/21 12:27:06;;;;;;;0.85;0.75;;;24.00;54.20;;;;;;4998193;28;20029;-66
2023/09/21 12:29:33;;;;;;;0.98;0.77;;;24.00;54.20;;;;;;4997257;28;20166;-67
2023/09/21 12:32:05;;;;;;;0.90;0.80;;;24.00;54.20;;;;;;4999247;28;20042;-62
2023/09/21 12:34:32;;;;;;;1.17;0.80;;;24.00;54.20;;;;;;4996636;28;20026;-61
2023/09/21 12:36:58;;;;;;;1.13;0.90;;;24.00;54.20;;;;;;4997912;28;20945;-62
2023/09/21 12:39:27;;;;;;;1.00;0.85;;;24.00;54.20;;;;;;4998394;28;20073;-61
2023/09/21 12:41:55;;;;;;;1.00;0.80;;;24.00;54.20;;;;;;5000782;28;20050;-62
2023/09/21 12:44:20;;;;;;;1.10;0.85;;;24.00;54.20;;;;;;5001115;28;20048;-60
2023/09/21 12:46:46;;;;;;;0.80;0.80;;;24.00;54.20;;;;;;5002165;28;20034;-61
2023/09/21 12:49:13;;;;;;;0.68;0.63;;;24.00;54.20;;;;;;4999462;28;20026;-62